sensor_id;sensor_type;location;lat;lon;timestamp;P1;durP1;ratioP1;P2;durP2;ratioP2
1358;SDS011;673;48.098;14.422;2023-02-24T00:00:02;26.77;;;22.67;;
1358;SDS011;673;48.098;14.422;2023-02-24T00:02:57;27.53;;;22.63;;
1358;SDS011;673;48.098;14.422;2023-02-24T00:05:29;28.43;;;22.17;;
1358;SDS011;673;48.098;14.422;2023-02-24T00:08:03;27.83;;;21.23;;
1358;SDS011;673;48.098;14.422;2023-02-24T00:10:30;28.30;;;21.73;;
1358;SDS011;673;48.098;14.422;2023-02-24T00:12:58;28.87;;;21.97;;
1358;SDS011;673;48.098;14.422;2023-02-24T00:15:25;28.03;;;22.40;;
1358;SDS011;673;48.098;14.422;2023-02-24T00:17:52;27.10;;;21.70;;
1358;SDS011;673;48.098;14.422;2023-02-24T00:20:21;25.20;;;21.57;;
1358;SDS011;673;48.098;14.422;2023-02-24T00:22:48;26.63;;;22.80;;
1358;SDS011;673;48.098;14.422;2023-02-24T00:25:15;27.23;;;20.60;;
1358;SDS011;673;48.098;14.422;2023-02-24T00:27:42;29.70;;;20.97;;
1358;SDS011;673;48.098;14.422;2023-02-24T00:30:09;24.50;;;20.00;;
1358;SDS011;673;48.098;14.422;2023-02-24T00:32:37;26.50;;;20.73;;
1358;SDS011;673;48.098;14.422;2023-02-24T00:35:04;30.70;;;19.60;;
1358;SDS011;673;48.098;14.422;2023-02-24T00:37:34;25.40;;;20.30;;
1358;SDS011;673;48.098;14.422;2023-02-24T00:40:01;27.13;;;18.40;;
1358;SDS011;673;48.098;14.422;2023-02-24T00:42:35;26.17;;;20.90;;
1358;SDS011;673;48.098;14.422;2023-02-24T00:45:04;31.23;;;22.37;;
1358;SDS011;673;48.098;14.422;2023-02-24T00:47:35;26.67;;;20.17;;
1358;SDS011;673;48.098;14.422;2023-02-24T00:50:04;25.50;;;19.43;;
1358;SDS011;673;48.098;14.422;2023-02-24T00:52:32;25.63;;;18.00;;
1358;SDS011;673;48.098;14.422;2023-02-24T00:55:01;29.40;;;20.63;;
1358;SDS011;673;48.098;14.422;2023-02-24T00:57:38;29.10;;;20.67;;
1358;SDS011;673;48.098;14.422;2023-02-24T01:00:05;24.40;;;19.10;;
1358;SDS011;673;48.098;14.422;2023-02-24T01:02:39;25.40;;;20.03;;
1358;SDS011;673;48.098;14.422;2023-02-24T01:05:06;23.37;;;17.97;;
1358;SDS011;673;48.098;14.422;2023-02-24T01:07:35;27.17;;;18.47;;
1358;SDS011;673;48.098;14.422;2023-02-24T01:10:02;25.27;;;18.70;;
1358;SDS011;673;48.098;14.422;2023-02-24T01:12:32;25.73;;;19.63;;
1358;SDS011;673;48.098;14.422;2023-02-24T01:15:13;22.47;;;17.00;;
1358;SDS011;673;48.098;14.422;2023-02-24T01:17:41;26.77;;;18.50;;
1358;SDS011;673;48.098;14.422;2023-02-24T01:20:09;24.97;;;18.07;;
1358;SDS011;673;48.098;14.422;2023-02-24T01:22:42;22.50;;;17.53;;
1358;SDS011;673;48.098;14.422;2023-02-24T01:25:10;23.60;;;18.07;;
1358;SDS011;673;48.098;14.422;2023-02-24T01:27:37;24.20;;;16.83;;
1358;SDS011;673;48.098;14.422;2023-02-24T01:30:06;22.07;;;19.30;;
1358;SDS011;673;48.098;14.422;2023-02-24T01:32:37;25.63;;;18.00;;
1358;SDS011;673;48.098;14.422;2023-02-24T01:35:05;25.37;;;18.17;;
1358;SDS011;673;48.098;14.422;2023-02-24T01:37:33;26.40;;;19.03;;
1358;SDS011;673;48.098;14.422;2023-02-24T01:40:01;19.53;;;16.37;;
1358;SDS011;673;48.098;14.422;2023-02-24T01:42:42;22.23;;;16.53;;
1358;SDS011;673;48.098;14.422;2023-02-24T01:45:13;21.87;;;17.27;;
1358;SDS011;673;48.098;14.422;2023-02-24T01:47:46;23.67;;;16.33;;
1358;SDS011;673;48.098;14.422;2023-02-24T01:50:15;24.07;;;17.07;;
1358;SDS011;673;48.098;14.422;2023-02-24T01:52:45;24.73;;;17.10;;
1358;SDS011;673;48.098;14.422;2023-02-24T01:55:17;24.63;;;20.13;;
1358;SDS011;673;48.098;14.422;2023-02-24T01:57:49;21.63;;;17.20;;
1358;SDS011;673;48.098;14.422;2023-02-24T02:00:18;23.07;;;16.97;;
1358;SDS011;673;48.098;14.422;2023-02-24T02:03:02;19.27;;;16.50;;
1358;SDS011;673;48.098;14.422;2023-02-24T02:05:36;24.47;;;19.13;;
1358;SDS011;673;48.098;14.422;2023-02-24T02:08:04;22.87;;;17.67;;
1358;SDS011;673;48.098;14.422;2023-02-24T02:10:35;23.20;;;18.80;;
1358;SDS011;673;48.098;14.422;2023-02-24T02:13:03;21.63;;;17.50;;
1358;SDS011;673;48.098;14.422;2023-02-24T02:15:31;20.30;;;15.80;;
1358;SDS011;673;48.098;14.422;2023-02-24T02:18:10;25.67;;;17.80;;
1358;SDS011;673;48.098;14.422;2023-02-24T02:23:55;24.00;;;17.47;;
1358;SDS011;673;48.098;14.422;2023-02-24T02:26:37;21.97;;;16.80;;
1358;SDS011;673;48.098;14.422;2023-02-24T02:32:37;25.20;;;18.30;;
1358;SDS011;673;48.098;14.422;2023-02-24T02:35:18;22.63;;;18.00;;
1358;SDS011;673;48.098;14.422;2023-02-24T02:37:51;19.93;;;16.50;;
1358;SDS011;673;48.098;14.422;2023-02-24T02:40:23;21.43;;;17.73;;
1358;SDS011;673;48.098;14.422;2023-02-24T02:42:58;22.07;;;17.57;;
1358;SDS011;673;48.098;14.422;2023-02-24T02:45:28;23.57;;;18.63;;
1358;SDS011;673;48.098;14.422;2023-02-24T02:48:00;25.87;;;18.20;;
1358;SDS011;673;48.098;14.422;2023-02-24T02:50:34;27.17;;;19.37;;
1358;SDS011;673;48.098;14.422;2023-02-24T02:53:07;23.70;;;17.53;;
1358;SDS011;673;48.098;14.422;2023-02-24T02:55:38;28.93;;;19.03;;
1358;SDS011;673;48.098;14.422;2023-02-24T02:58:12;22.20;;;16.20;;
1358;SDS011;673;48.098;14.422;2023-02-24T03:00:43;20.67;;;16.60;;
1358;SDS011;673;48.098;14.422;2023-02-24T03:03:22;19.97;;;16.80;;
1358;SDS011;673;48.098;14.422;2023-02-24T03:05:54;23.50;;;16.20;;
1358;SDS011;673;48.098;14.422;2023-02-24T03:08:26;21.80;;;16.80;;
1358;SDS011;673;48.098;14.422;2023-02-24T03:10:55;23.73;;;17.03;;
1358;SDS011;673;48.098;14.422;2023-02-24T03:13:25;20.90;;;15.77;;
1358;SDS011;673;48.098;14.422;2023-02-24T03:15:56;20.90;;;17.07;;
1358;SDS011;673;48.098;14.422;2023-02-24T03:18:27;20.50;;;14.87;;
1358;SDS011;673;48.098;14.422;2023-02-24T03:21:00;23.17;;;16.77;;
1358;SDS011;673;48.098;14.422;2023-02-24T03:23:32;19.70;;;15.37;;
1358;SDS011;673;48.098;14.422;2023-02-24T03:26:05;21.10;;;15.90;;
1358;SDS011;673;48.098;14.422;2023-02-24T03:28:46;19.50;;;14.57;;
1358;SDS011;673;48.098;14.422;2023-02-24T03:31:20;22.80;;;15.73;;
1358;SDS011;673;48.098;14.422;2023-02-24T03:33:54;21.13;;;15.83;;
1358;SDS011;673;48.098;14.422;2023-02-24T03:36:29;21.13;;;15.70;;
1358;SDS011;673;48.098;14.422;2023-02-24T03:38:56;21.17;;;14.00;;
1358;SDS011;673;48.098;14.422;2023-02-24T03:41:26;20.33;;;15.37;;
1358;SDS011;673;48.098;14.422;2023-02-24T03:43:56;24.90;;;16.40;;
1358;SDS011;673;48.098;14.422;2023-02-24T03:46:26;24.03;;;16.93;;
1358;SDS011;673;48.098;14.422;2023-02-24T03:48:56;21.13;;;16.73;;
1358;SDS011;673;48.098;14.422;2023-02-24T03:51:38;20.37;;;17.00;;
1358;SDS011;673;48.098;14.422;2023-02-24T03:54:11;18.73;;;15.93;;
1358;SDS011;673;48.098;14.422;2023-02-24T03:56:56;21.60;;;16.33;;
1358;SDS011;673;48.098;14.422;2023-02-24T03:59:33;23.30;;;15.17;;
1358;SDS011;673;48.098;14.422;2023-02-24T04:02:12;25.53;;;16.80;;
1358;SDS011;673;48.098;14.422;2023-02-24T04:04:46;17.77;;;14.80;;
1358;SDS011;673;48.098;14.422;2023-02-24T04:07:23;22.17;;;17.17;;
1358;SDS011;673;48.098;14.422;2023-02-24T04:10:03;18.83;;;14.93;;
1358;SDS011;673;48.098;14.422;2023-02-24T04:12:35;21.13;;;15.63;;
1358;SDS011;673;48.098;14.422;2023-02-24T04:15:08;20.40;;;16.47;;
1358;SDS011;673;48.098;14.422;2023-02-24T04:17:41;18.47;;;15.43;;
1358;SDS011;673;48.098;14.422;2023-02-24T04:20:11;21.07;;;15.50;;
1358;SDS011;673;48.098;14.422;2023-02-24T04:22:43;18.20;;;15.00;;
1358;SDS011;673;48.098;14.422;2023-02-24T04:25:14;17.40;;;14.43;;
1358;SDS011;673;48.098;14.422;2023-02-24T04:27:43;18.60;;;15.03;;
1358;SDS011;673;48.098;14.422;2023-02-24T04:30:12;20.87;;;14.80;;
1358;SDS011;673;48.098;14.422;2023-02-24T04:32:40;19.10;;;15.63;;
1358;SDS011;673;48.098;14.422;2023-02-24T04:35:08;18.70;;;14.30;;
1358;SDS011;673;48.098;14.422;2023-02-24T04:37:39;18.93;;;15.67;;
1358;SDS011;673;48.098;14.422;2023-02-24T04:40:11;19.83;;;16.70;;
1358;SDS011;673;48.098;14.422;2023-02-24T04:42:41;19.77;;;14.80;;
1358;SDS011;673;48.098;14.422;2023-02-24T04:45:13;15.80;;;13.43;;
1358;SDS011;673;48.098;14.422;2023-02-24T04:47:41;22.10;;;16.27;;
1358;SDS011;673;48.098;14.422;2023-02-24T04:50:14;20.90;;;14.97;;
1358;SDS011;673;48.098;14.422;2023-02-24T04:52:47;19.60;;;14.57;;
1358;SDS011;673;48.098;14.422;2023-02-24T04:55:17;21.90;;;16.03;;
1358;SDS011;673;48.098;14.422;2023-02-24T04:57:46;15.63;;;13.47;;
1358;SDS011;673;48.098;14.422;2023-02-24T05:00:14;19.70;;;15.17;;
1358;SDS011;673;48.098;14.422;2023-02-24T05:02:51;18.13;;;13.63;;
1358;SDS011;673;48.098;14.422;2023-02-24T05:05:19;21.70;;;14.93;;
1358;SDS011;673;48.098;14.422;2023-02-24T05:07:49;17.23;;;14.23;;
1358;SDS011;673;48.098;14.422;2023-02-24T05:10:18;17.00;;;14.63;;
1358;SDS011;673;48.098;14.422;2023-02-24T05:12:46;19.23;;;14.70;;
1358;SDS011;673;48.098;14.422;2023-02-24T05:15:13;20.17;;;14.47;;
1358;SDS011;673;48.098;14.422;2023-02-24T05:17:40;15.97;;;14.03;;
1358;SDS011;673;48.098;14.422;2023-02-24T05:20:07;24.47;;;15.80;;
1358;SDS011;673;48.098;14.422;2023-02-24T05:22:52;22.90;;;16.50;;
1358;SDS011;673;48.098;14.422;2023-02-24T05:25:22;19.97;;;16.03;;
1358;SDS011;673;48.098;14.422;2023-02-24T05:27:50;19.47;;;16.23;;
1358;SDS011;673;48.098;14.422;2023-02-24T05:30:17;21.97;;;15.97;;
1358;SDS011;673;48.098;14.422;2023-02-24T05:32:44;21.50;;;15.83;;
1358;SDS011;673;48.098;14.422;2023-02-24T05:35:11;20.83;;;16.00;;
1358;SDS011;673;48.098;14.422;2023-02-24T05:37:39;18.70;;;15.40;;
1358;SDS011;673;48.098;14.422;2023-02-24T05:40:08;20.23;;;16.50;;
1358;SDS011;673;48.098;14.422;2023-02-24T05:42:40;20.70;;;15.87;;
1358;SDS011;673;48.098;14.422;2023-02-24T05:45:09;22.67;;;15.83;;
1358;SDS011;673;48.098;14.422;2023-02-24T05:47:36;20.63;;;14.80;;
1358;SDS011;673;48.098;14.422;2023-02-24T05:50:04;20.17;;;15.27;;
1358;SDS011;673;48.098;14.422;2023-02-24T05:52:34;19.07;;;14.10;;
1358;SDS011;673;48.098;14.422;2023-02-24T05:55:02;19.07;;;14.57;;
1358;SDS011;673;48.098;14.422;2023-02-24T05:57:31;21.80;;;16.20;;
1358;SDS011;673;48.098;14.422;2023-02-24T06:00:02;20.60;;;14.70;;
1358;SDS011;673;48.098;14.422;2023-02-24T06:02:38;21.27;;;15.43;;
1358;SDS011;673;48.098;14.422;2023-02-24T06:05:13;25.53;;;18.30;;
1358;SDS011;673;48.098;14.422;2023-02-24T06:07:55;22.03;;;16.70;;
1358;SDS011;673;48.098;14.422;2023-02-24T06:10:29;26.37;;;16.77;;
1358;SDS011;673;48.098;14.422;2023-02-24T06:12:59;22.57;;;16.50;;
1358;SDS011;673;48.098;14.422;2023-02-24T06:15:28;22.03;;;15.87;;
1358;SDS011;673;48.098;14.422;2023-02-24T06:17:56;19.57;;;15.10;;
1358;SDS011;673;48.098;14.422;2023-02-24T06:20:25;21.67;;;16.77;;
1358;SDS011;673;48.098;14.422;2023-02-24T06:22:53;22.20;;;15.87;;
1358;SDS011;673;48.098;14.422;2023-02-24T06:25:22;19.30;;;13.60;;
1358;SDS011;673;48.098;14.422;2023-02-24T06:27:50;19.27;;;14.67;;
1358;SDS011;673;48.098;14.422;2023-02-24T06:30:19;18.83;;;14.97;;
1358;SDS011;673;48.098;14.422;2023-02-24T06:32:48;17.27;;;15.37;;
1358;SDS011;673;48.098;14.422;2023-02-24T06:35:16;18.20;;;13.83;;
1358;SDS011;673;48.098;14.422;2023-02-24T06:37:44;18.80;;;13.80;;
1358;SDS011;673;48.098;14.422;2023-02-24T06:40:11;23.33;;;16.97;;
1358;SDS011;673;48.098;14.422;2023-02-24T06:42:44;18.13;;;13.43;;
1358;SDS011;673;48.098;14.422;2023-02-24T06:45:12;20.00;;;14.63;;
1358;SDS011;673;48.098;14.422;2023-02-24T06:47:40;16.90;;;12.57;;
1358;SDS011;673;48.098;14.422;2023-02-24T06:50:10;17.83;;;13.50;;
1358;SDS011;673;48.098;14.422;2023-02-24T06:52:37;15.53;;;12.40;;
1358;SDS011;673;48.098;14.422;2023-02-24T06:55:05;17.20;;;12.87;;
1358;SDS011;673;48.098;14.422;2023-02-24T06:57:49;16.13;;;12.90;;
1358;SDS011;673;48.098;14.422;2023-02-24T07:00:21;16.40;;;13.17;;
1358;SDS011;673;48.098;14.422;2023-02-24T07:03:01;17.33;;;13.30;;
1358;SDS011;673;48.098;14.422;2023-02-24T07:05:40;19.77;;;13.23;;
1358;SDS011;673;48.098;14.422;2023-02-24T07:08:13;18.20;;;14.53;;
1358;SDS011;673;48.098;14.422;2023-02-24T07:10:41;17.90;;;13.03;;
1358;SDS011;673;48.098;14.422;2023-02-24T07:13:08;17.17;;;13.83;;
1358;SDS011;673;48.098;14.422;2023-02-24T07:15:37;16.33;;;12.27;;
1358;SDS011;673;48.098;14.422;2023-02-24T07:18:04;17.17;;;14.83;;
1358;SDS011;673;48.098;14.422;2023-02-24T07:20:40;16.60;;;13.40;;
1358;SDS011;673;48.098;14.422;2023-02-24T07:23:10;12.23;;;10.93;;
1358;SDS011;673;48.098;14.422;2023-02-24T07:25:37;19.97;;;14.83;;
1358;SDS011;673;48.098;14.422;2023-02-24T07:28:05;17.00;;;14.10;;
1358;SDS011;673;48.098;14.422;2023-02-24T07:30:33;15.93;;;12.20;;
1358;SDS011;673;48.098;14.422;2023-02-24T07:33:01;17.00;;;14.03;;
1358;SDS011;673;48.098;14.422;2023-02-24T07:35:29;16.93;;;12.43;;
1358;SDS011;673;48.098;14.422;2023-02-24T07:37:57;18.93;;;13.07;;
1358;SDS011;673;48.098;14.422;2023-02-24T07:40:26;20.30;;;13.17;;
1358;SDS011;673;48.098;14.422;2023-02-24T07:42:53;22.50;;;15.27;;
1358;SDS011;673;48.098;14.422;2023-02-24T07:45:21;17.70;;;11.87;;
1358;SDS011;673;48.098;14.422;2023-02-24T07:47:48;18.83;;;13.07;;
1358;SDS011;673;48.098;14.422;2023-02-24T07:50:15;20.63;;;13.47;;
1358;SDS011;673;48.098;14.422;2023-02-24T07:52:43;25.13;;;13.70;;
1358;SDS011;673;48.098;14.422;2023-02-24T07:55:13;19.60;;;11.87;;
1358;SDS011;673;48.098;14.422;2023-02-24T07:57:41;16.50;;;13.53;;
1358;SDS011;673;48.098;14.422;2023-02-24T08:00:11;18.90;;;13.70;;
1358;SDS011;673;48.098;14.422;2023-02-24T08:02:43;19.97;;;15.57;;
1358;SDS011;673;48.098;14.422;2023-02-24T08:05:11;13.57;;;12.17;;
1358;SDS011;673;48.098;14.422;2023-02-24T08:07:39;17.53;;;12.30;;
1358;SDS011;673;48.098;14.422;2023-02-24T08:10:07;16.57;;;10.83;;
1358;SDS011;673;48.098;14.422;2023-02-24T08:12:40;17.90;;;10.57;;
1358;SDS011;673;48.098;14.422;2023-02-24T08:15:11;12.30;;;9.90;;
1358;SDS011;673;48.098;14.422;2023-02-24T08:17:48;13.50;;;10.13;;
1358;SDS011;673;48.098;14.422;2023-02-24T08:20:17;12.40;;;11.10;;
1358;SDS011;673;48.098;14.422;2023-02-24T08:22:49;13.43;;;11.90;;
1358;SDS011;673;48.098;14.422;2023-02-24T08:25:18;14.30;;;12.80;;
1358;SDS011;673;48.098;14.422;2023-02-24T08:27:49;16.20;;;12.27;;
1358;SDS011;673;48.098;14.422;2023-02-24T08:30:21;12.93;;;11.53;;
1358;SDS011;673;48.098;14.422;2023-02-24T08:32:50;14.60;;;11.83;;
1358;SDS011;673;48.098;14.422;2023-02-24T08:35:22;12.50;;;10.70;;
1358;SDS011;673;48.098;14.422;2023-02-24T08:37:56;14.80;;;11.20;;
1358;SDS011;673;48.098;14.422;2023-02-24T08:40:29;13.40;;;11.80;;
1358;SDS011;673;48.098;14.422;2023-02-24T08:43:05;16.23;;;11.30;;
1358;SDS011;673;48.098;14.422;2023-02-24T08:45:44;11.80;;;10.60;;
1358;SDS011;673;48.098;14.422;2023-02-24T08:48:17;12.70;;;11.37;;
1358;SDS011;673;48.098;14.422;2023-02-24T08:50:56;14.40;;;11.30;;
1358;SDS011;673;48.098;14.422;2023-02-24T08:53:24;13.43;;;11.50;;
1358;SDS011;673;48.098;14.422;2023-02-24T08:55:56;13.27;;;11.97;;
1358;SDS011;673;48.098;14.422;2023-02-24T08:58:25;12.13;;;10.60;;
1358;SDS011;673;48.098;14.422;2023-02-24T09:00:52;11.10;;;10.00;;
1358;SDS011;673;48.098;14.422;2023-02-24T09:03:22;13.80;;;9.97;;
1358;SDS011;673;48.098;14.422;2023-02-24T09:05:57;12.57;;;11.30;;
1358;SDS011;673;48.098;14.422;2023-02-24T09:08:26;12.17;;;10.97;;
1358;SDS011;673;48.098;14.422;2023-02-24T09:10:57;11.73;;;10.07;;
1358;SDS011;673;48.098;14.422;2023-02-24T09:13:26;11.13;;;10.03;;
1358;SDS011;673;48.098;14.422;2023-02-24T09:15:57;12.80;;;10.43;;
1358;SDS011;673;48.098;14.422;2023-02-24T09:18:26;13.53;;;10.10;;
1358;SDS011;673;48.098;14.422;2023-02-24T09:21:06;11.57;;;8.90;;
1358;SDS011;673;48.098;14.422;2023-02-24T09:23:57;11.50;;;8.57;;
1358;SDS011;673;48.098;14.422;2023-02-24T09:26:27;13.43;;;9.60;;
1358;SDS011;673;48.098;14.422;2023-02-24T09:28:58;11.80;;;9.47;;
1358;SDS011;673;48.098;14.422;2023-02-24T09:31:35;10.03;;;8.10;;
1358;SDS011;673;48.098;14.422;2023-02-24T09:34:19;10.53;;;8.53;;
1358;SDS011;673;48.098;14.422;2023-02-24T09:36:54;11.93;;;9.00;;
1358;SDS011;673;48.098;14.422;2023-02-24T09:39:27;8.97;;;8.13;;
1358;SDS011;673;48.098;14.422;2023-02-24T09:42:15;13.20;;;9.50;;
1358;SDS011;673;48.098;14.422;2023-02-24T09:45:00;13.60;;;10.20;;
1358;SDS011;673;48.098;14.422;2023-02-24T09:47:31;9.47;;;8.40;;
1358;SDS011;673;48.098;14.422;2023-02-24T09:50:17;9.70;;;8.70;;
1358;SDS011;673;48.098;14.422;2023-02-24T09:52:55;10.57;;;8.50;;
1358;SDS011;673;48.098;14.422;2023-02-24T09:55:39;13.00;;;10.17;;
1358;SDS011;673;48.098;14.422;2023-02-24T09:58:26;8.40;;;7.40;;
1358;SDS011;673;48.098;14.422;2023-02-24T10:01:00;10.60;;;8.27;;
1358;SDS011;673;48.098;14.422;2023-02-24T10:03:46;14.60;;;9.43;;
1358;SDS011;673;48.098;14.422;2023-02-24T10:06:28;12.30;;;9.47;;
1358;SDS011;673;48.098;14.422;2023-02-24T10:09:02;11.30;;;7.90;;
1358;SDS011;673;48.098;14.422;2023-02-24T10:11:37;7.57;;;6.67;;
1358;SDS011;673;48.098;14.422;2023-02-24T10:14:17;10.67;;;8.07;;
1358;SDS011;673;48.098;14.422;2023-02-24T10:16:50;15.27;;;9.90;;
1358;SDS011;673;48.098;14.422;2023-02-24T10:19:44;9.33;;;7.87;;
1358;SDS011;673;48.098;14.422;2023-02-24T10:22:21;10.60;;;9.50;;
1358;SDS011;673;48.098;14.422;2023-02-24T10:24:54;9.27;;;8.33;;
1358;SDS011;673;48.098;14.422;2023-02-24T10:27:47;9.77;;;7.97;;
1358;SDS011;673;48.098;14.422;2023-02-24T10:30:37;9.97;;;8.97;;
1358;SDS011;673;48.098;14.422;2023-02-24T10:33:16;9.17;;;8.27;;
1358;SDS011;673;48.098;14.422;2023-02-24T10:35:49;8.53;;;7.13;;
1358;SDS011;673;48.098;14.422;2023-02-24T10:38:18;8.97;;;8.07;;
1358;SDS011;673;48.098;14.422;2023-02-24T10:40:47;7.80;;;7.07;;
1358;SDS011;673;48.098;14.422;2023-02-24T10:43:21;9.73;;;8.10;;
1358;SDS011;673;48.098;14.422;2023-02-24T10:45:56;8.80;;;7.87;;
1358;SDS011;673;48.098;14.422;2023-02-24T10:48:31;11.33;;;8.63;;
1358;SDS011;673;48.098;14.422;2023-02-24T10:51:07;9.97;;;7.80;;
1358;SDS011;673;48.098;14.422;2023-02-24T10:53:44;10.80;;;7.87;;
1358;SDS011;673;48.098;14.422;2023-02-24T10:56:17;11.40;;;8.00;;
1358;SDS011;673;48.098;14.422;2023-02-24T10:58:58;10.90;;;9.80;;
1358;SDS011;673;48.098;14.422;2023-02-24T11:01:41;11.00;;;9.90;;
1358;SDS011;673;48.098;14.422;2023-02-24T11:04:20;15.20;;;11.03;;
1358;SDS011;673;48.098;14.422;2023-02-24T11:07:10;10.43;;;9.33;;
1358;SDS011;673;48.098;14.422;2023-02-24T11:09:48;15.90;;;9.10;;
1358;SDS011;673;48.098;14.422;2023-02-24T11:12:36;11.90;;;9.97;;
1358;SDS011;673;48.098;14.422;2023-02-24T11:15:26;13.50;;;9.50;;
1358;SDS011;673;48.098;14.422;2023-02-24T11:18:15;12.37;;;9.40;;
1358;SDS011;673;48.098;14.422;2023-02-24T11:20:50;11.67;;;10.47;;
1358;SDS011;673;48.098;14.422;2023-02-24T11:23:21;13.97;;;10.30;;
1358;SDS011;673;48.098;14.422;2023-02-24T11:25:50;10.17;;;9.20;;
1358;SDS011;673;48.098;14.422;2023-02-24T11:28:26;9.90;;;8.33;;
1358;SDS011;673;48.098;14.422;2023-02-24T11:31:08;10.80;;;9.47;;
1358;SDS011;673;48.098;14.422;2023-02-24T11:33:45;10.03;;;8.77;;
1358;SDS011;673;48.098;14.422;2023-02-24T11:36:23;12.13;;;9.63;;
1358;SDS011;673;48.098;14.422;2023-02-24T11:39:00;10.57;;;8.47;;
1358;SDS011;673;48.098;14.422;2023-02-24T11:41:35;10.77;;;7.83;;
1358;SDS011;673;48.098;14.422;2023-02-24T11:44:17;9.93;;;8.40;;
1358;SDS011;673;48.098;14.422;2023-02-24T11:46:51;9.07;;;8.07;;
1358;SDS011;673;48.098;14.422;2023-02-24T11:49:24;10.63;;;8.13;;
1358;SDS011;673;48.098;14.422;2023-02-24T11:51:56;9.63;;;8.63;;
1358;SDS011;673;48.098;14.422;2023-02-24T11:54:28;9.20;;;8.30;;
1358;SDS011;673;48.098;14.422;2023-02-24T11:57:02;9.17;;;7.30;;
1358;SDS011;673;48.098;14.422;2023-02-24T11:59:36;9.57;;;8.13;;
1358;SDS011;673;48.098;14.422;2023-02-24T12:02:10;9.37;;;8.50;;
1358;SDS011;673;48.098;14.422;2023-02-24T12:04:43;9.93;;;7.80;;
1358;SDS011;673;48.098;14.422;2023-02-24T12:07:23;13.80;;;8.17;;
1358;SDS011;673;48.098;14.422;2023-02-24T12:09:58;9.17;;;8.27;;
1358;SDS011;673;48.098;14.422;2023-02-24T12:12:30;11.90;;;9.07;;
1358;SDS011;673;48.098;14.422;2023-02-24T12:15:03;9.70;;;8.03;;
1358;SDS011;673;48.098;14.422;2023-02-24T12:17:36;13.37;;;9.00;;
1358;SDS011;673;48.098;14.422;2023-02-24T12:20:14;8.03;;;7.23;;
1358;SDS011;673;48.098;14.422;2023-02-24T12:22:48;12.27;;;9.10;;
1358;SDS011;673;48.098;14.422;2023-02-24T12:25:20;16.20;;;9.40;;
1358;SDS011;673;48.098;14.422;2023-02-24T12:27:59;9.27;;;8.37;;
1358;SDS011;673;48.098;14.422;2023-02-24T12:30:42;12.23;;;9.07;;
1358;SDS011;673;48.098;14.422;2023-02-24T12:33:36;9.60;;;8.70;;
1358;SDS011;673;48.098;14.422;2023-02-24T12:36:15;12.70;;;8.97;;
1358;SDS011;673;48.098;14.422;2023-02-24T12:38:55;11.20;;;9.27;;
1358;SDS011;673;48.098;14.422;2023-02-24T12:41:37;9.87;;;8.67;;
1358;SDS011;673;48.098;14.422;2023-02-24T12:44:20;11.10;;;9.23;;
1358;SDS011;673;48.098;14.422;2023-02-24T12:46:56;11.90;;;8.80;;
1358;SDS011;673;48.098;14.422;2023-02-24T12:49:41;8.63;;;7.80;;
1358;SDS011;673;48.098;14.422;2023-02-24T12:52:39;10.53;;;9.43;;
1358;SDS011;673;48.098;14.422;2023-02-24T12:55:16;9.93;;;8.93;;
1358;SDS011;673;48.098;14.422;2023-02-24T12:57:50;12.50;;;8.60;;
1358;SDS011;673;48.098;14.422;2023-02-24T13:00:27;9.30;;;7.60;;
1358;SDS011;673;48.098;14.422;2023-02-24T13:02:59;8.90;;;8.10;;
1358;SDS011;673;48.098;14.422;2023-02-24T13:05:36;10.63;;;9.13;;
1358;SDS011;673;48.098;14.422;2023-02-24T13:08:13;9.70;;;8.70;;
1358;SDS011;673;48.098;14.422;2023-02-24T13:10:50;9.47;;;8.47;;
1358;SDS011;673;48.098;14.422;2023-02-24T13:13:26;14.93;;;9.67;;
1358;SDS011;673;48.098;14.422;2023-02-24T13:15:59;10.87;;;9.77;;
1358;SDS011;673;48.098;14.422;2023-02-24T13:18:27;9.93;;;8.90;;
1358;SDS011;673;48.098;14.422;2023-02-24T13:21:02;10.70;;;9.43;;
1358;SDS011;673;48.098;14.422;2023-02-24T13:23:31;10.87;;;9.27;;
1358;SDS011;673;48.098;14.422;2023-02-24T13:26:01;10.43;;;9.23;;
1358;SDS011;673;48.098;14.422;2023-02-24T13:28:29;10.53;;;7.87;;
1358;SDS011;673;48.098;14.422;2023-02-24T13:31:00;10.10;;;8.57;;
1358;SDS011;673;48.098;14.422;2023-02-24T13:33:30;16.47;;;9.00;;
1358;SDS011;673;48.098;14.422;2023-02-24T13:38:50;11.10;;;8.90;;
1358;SDS011;673;48.098;14.422;2023-02-24T13:41:36;10.23;;;8.30;;
1358;SDS011;673;48.098;14.422;2023-02-24T13:44:24;11.10;;;9.37;;
1358;SDS011;673;48.098;14.422;2023-02-24T13:49:58;12.63;;;9.20;;
1358;SDS011;673;48.098;14.422;2023-02-24T13:52:38;8.13;;;7.13;;
1358;SDS011;673;48.098;14.422;2023-02-24T13:55:22;9.80;;;8.30;;
1358;SDS011;673;48.098;14.422;2023-02-24T14:01:01;10.47;;;8.73;;
1358;SDS011;673;48.098;14.422;2023-02-24T14:03:32;11.43;;;8.30;;
1358;SDS011;673;48.098;14.422;2023-02-24T14:06:01;9.50;;;8.13;;
1358;SDS011;673;48.098;14.422;2023-02-24T14:08:32;8.87;;;7.97;;
1358;SDS011;673;48.098;14.422;2023-02-24T14:11:03;11.43;;;8.43;;
1358;SDS011;673;48.098;14.422;2023-02-24T14:13:35;11.90;;;8.37;;
1358;SDS011;673;48.098;14.422;2023-02-24T14:16:05;9.37;;;8.43;;
1358;SDS011;673;48.098;14.422;2023-02-24T14:18:34;13.83;;;8.80;;
1358;SDS011;673;48.098;14.422;2023-02-24T14:21:02;9.37;;;8.30;;
1358;SDS011;673;48.098;14.422;2023-02-24T14:23:30;9.43;;;8.40;;
1358;SDS011;673;48.098;14.422;2023-02-24T14:25:58;11.60;;;8.43;;
1358;SDS011;673;48.098;14.422;2023-02-24T14:28:28;9.63;;;7.97;;
1358;SDS011;673;48.098;14.422;2023-02-24T14:30:57;10.47;;;8.13;;
1358;SDS011;673;48.098;14.422;2023-02-24T14:33:30;11.27;;;8.30;;
1358;SDS011;673;48.098;14.422;2023-02-24T14:35:59;10.43;;;8.30;;
1358;SDS011;673;48.098;14.422;2023-02-24T14:38:29;8.70;;;7.80;;
1358;SDS011;673;48.098;14.422;2023-02-24T14:40:59;9.17;;;8.00;;
1358;SDS011;673;48.098;14.422;2023-02-24T14:43:27;8.30;;;7.37;;
1358;SDS011;673;48.098;14.422;2023-02-24T14:45:54;10.93;;;8.00;;
1358;SDS011;673;48.098;14.422;2023-02-24T14:48:23;8.73;;;7.87;;
1358;SDS011;673;48.098;14.422;2023-02-24T14:50:53;14.13;;;8.13;;
1358;SDS011;673;48.098;14.422;2023-02-24T14:53:24;7.67;;;6.87;;
1358;SDS011;673;48.098;14.422;2023-02-24T14:55:56;8.03;;;7.23;;
1358;SDS011;673;48.098;14.422;2023-02-24T14:58:27;12.87;;;9.87;;
1358;SDS011;673;48.098;14.422;2023-02-24T15:00:58;8.83;;;7.93;;
1358;SDS011;673;48.098;14.422;2023-02-24T15:03:29;10.20;;;8.20;;
1358;SDS011;673;48.098;14.422;2023-02-24T15:06:03;10.03;;;8.40;;
1358;SDS011;673;48.098;14.422;2023-02-24T15:08:33;11.37;;;8.63;;
1358;SDS011;673;48.098;14.422;2023-02-24T15:11:04;18.50;;;11.87;;
1358;SDS011;673;48.098;14.422;2023-02-24T15:13:37;12.80;;;8.50;;
1358;SDS011;673;48.098;14.422;2023-02-24T15:16:09;11.73;;;8.90;;
1358;SDS011;673;48.098;14.422;2023-02-24T15:18:38;10.17;;;8.47;;
1358;SDS011;673;48.098;14.422;2023-02-24T15:21:18;8.80;;;7.90;;
1358;SDS011;673;48.098;14.422;2023-02-24T15:23:46;9.93;;;7.63;;
1358;SDS011;673;48.098;14.422;2023-02-24T15:26:23;11.73;;;8.37;;
1358;SDS011;673;48.098;14.422;2023-02-24T15:28:56;11.07;;;8.27;;
1358;SDS011;673;48.098;14.422;2023-02-24T15:31:24;8.83;;;7.73;;
1358;SDS011;673;48.098;14.422;2023-02-24T15:33:53;9.57;;;8.33;;
1358;SDS011;673;48.098;14.422;2023-02-24T15:36:24;9.90;;;7.90;;
1358;SDS011;673;48.098;14.422;2023-02-24T15:38:53;8.93;;;7.93;;
1358;SDS011;673;48.098;14.422;2023-02-24T15:41:24;10.80;;;7.10;;
1358;SDS011;673;48.098;14.422;2023-02-24T15:44:02;11.03;;;7.10;;